sensor_id;sensor_type;location;lat;lon;timestamp;P1;durP1;ratioP1;P2;durP2;ratioP2
73938;SDS011;62291;47.554;8.504;2022-08-27T00:01:15;11.63;;;10.43;;
73938;SDS011;62291;47.554;8.504;2022-08-27T00:03:42;13.93;;;9.60;;
73938;SDS011;62291;47.554;8.504;2022-08-27T00:06:10;9.90;;;8.50;;
73938;SDS011;62291;47.554;8.504;2022-08-27T00:08:38;14.73;;;10.27;;
73938;SDS011;62291;47.554;8.504;2022-08-27T00:11:04;11.75;;;10.05;;
73938;SDS011;62291;47.554;8.504;2022-08-27T00:13:30;9.57;;;8.57;;
73938;SDS011;62291;47.554;8.504;2022-08-27T00:15:56;11.73;;;9.95;;
73938;SDS011;62291;47.554;8.504;2022-08-27T00:18:22;11.35;;;10.15;;
73938;SDS011;62291;47.554;8.504;2022-08-27T00:20:49;10.98;;;9.93;;
73938;SDS011;62291;47.554;8.504;2022-08-27T00:23:14;10.57;;;9.15;;
73938;SDS011;62291;47.554;8.504;2022-08-27T00:25:40;9.45;;;8.55;;
73938;SDS011;62291;47.554;8.504;2022-08-27T00:28:06;9.00;;;8.10;;
73938;SDS011;62291;47.554;8.504;2022-08-27T00:30:32;7.93;;;7.10;;
73938;SDS011;62291;47.554;8.504;2022-08-27T00:32:57;9.25;;;7.18;;
73938;SDS011;62291;47.554;8.504;2022-08-27T00:35:23;9.48;;;8.57;;
73938;SDS011;62291;47.554;8.504;2022-08-27T00:37:49;10.93;;;9.40;;
73938;SDS011;62291;47.554;8.504;2022-08-27T00:40:16;12.40;;;9.82;;
73938;SDS011;62291;47.554;8.504;2022-08-27T00:42:44;10.02;;;8.98;;
73938;SDS011;62291;47.554;8.504;2022-08-27T00:45:11;10.98;;;9.75;;
73938;SDS011;62291;47.554;8.504;2022-08-27T00:47:45;11.07;;;9.88;;
73938;SDS011;62291;47.554;8.504;2022-08-27T00:50:14;10.93;;;9.82;;
73938;SDS011;62291;47.554;8.504;2022-08-27T00:52:47;10.13;;;8.73;;
73938;SDS011;62291;47.554;8.504;2022-08-27T00:55:20;10.52;;;9.52;;
73938;SDS011;62291;47.554;8.504;2022-08-27T00:58:13;10.25;;;9.13;;
73938;SDS011;62291;47.554;8.504;2022-08-27T01:00:37;10.32;;;8.82;;
73938;SDS011;62291;47.554;8.504;2022-08-27T01:03:03;11.10;;;10.00;;
73938;SDS011;62291;47.554;8.504;2022-08-27T01:05:30;9.65;;;8.65;;
73938;SDS011;62291;47.554;8.504;2022-08-27T01:07:58;11.25;;;8.77;;
73938;SDS011;62291;47.554;8.504;2022-08-27T01:10:30;12.00;;;9.02;;
73938;SDS011;62291;47.554;8.504;2022-08-27T01:12:56;10.77;;;9.68;;
73938;SDS011;62291;47.554;8.504;2022-08-27T01:15:24;11.45;;;9.23;;
73938;SDS011;62291;47.554;8.504;2022-08-27T01:17:54;13.30;;;10.45;;
73938;SDS011;62291;47.554;8.504;2022-08-27T01:20:22;14.35;;;10.73;;
73938;SDS011;62291;47.554;8.504;2022-08-27T01:25:42;22.65;;;16.45;;
73938;SDS011;62291;47.554;8.504;2022-08-27T01:28:08;18.77;;;13.15;;
73938;SDS011;62291;47.554;8.504;2022-08-27T01:30:35;13.45;;;12.02;;
73938;SDS011;62291;47.554;8.504;2022-08-27T01:33:07;12.00;;;10.68;;
73938;SDS011;62291;47.554;8.504;2022-08-27T01:35:41;12.10;;;10.80;;
73938;SDS011;62291;47.554;8.504;2022-08-27T01:38:08;13.35;;;11.00;;
73938;SDS011;62291;47.554;8.504;2022-08-27T01:40:34;12.63;;;11.32;;
73938;SDS011;62291;47.554;8.504;2022-08-27T01:43:01;12.65;;;9.98;;
73938;SDS011;62291;47.554;8.504;2022-08-27T01:45:29;13.07;;;11.50;;
73938;SDS011;62291;47.554;8.504;2022-08-27T01:47:57;12.50;;;10.30;;
73938;SDS011;62291;47.554;8.504;2022-08-27T01:50:28;12.57;;;10.38;;
73938;SDS011;62291;47.554;8.504;2022-08-27T01:52:56;12.80;;;10.90;;
73938;SDS011;62291;47.554;8.504;2022-08-27T01:55:30;14.20;;;11.88;;
73938;SDS011;62291;47.554;8.504;2022-08-27T01:57:55;14.65;;;12.07;;
73938;SDS011;62291;47.554;8.504;2022-08-27T02:00:25;12.10;;;10.80;;
73938;SDS011;62291;47.554;8.504;2022-08-27T02:02:57;13.77;;;11.10;;
73938;SDS011;62291;47.554;8.504;2022-08-27T02:05:24;14.77;;;11.63;;
73938;SDS011;62291;47.554;8.504;2022-08-27T02:07:51;12.60;;;10.23;;
73938;SDS011;62291;47.554;8.504;2022-08-27T02:10:19;12.73;;;11.30;;
73938;SDS011;62291;47.554;8.504;2022-08-27T02:12:47;14.00;;;10.88;;
73938;SDS011;62291;47.554;8.504;2022-08-27T02:15:13;11.45;;;9.23;;
73938;SDS011;62291;47.554;8.504;2022-08-27T02:17:39;10.13;;;9.13;;
73938;SDS011;62291;47.554;8.504;2022-08-27T02:20:06;11.82;;;10.63;;
73938;SDS011;62291;47.554;8.504;2022-08-27T02:22:35;11.45;;;10.35;;
73938;SDS011;62291;47.554;8.504;2022-08-27T02:25:01;12.80;;;9.98;;
73938;SDS011;62291;47.554;8.504;2022-08-27T02:27:27;13.45;;;10.82;;
73938;SDS011;62291;47.554;8.504;2022-08-27T02:29:53;12.30;;;11.00;;
73938;SDS011;62291;47.554;8.504;2022-08-27T02:32:19;13.18;;;11.77;;
73938;SDS011;62291;47.554;8.504;2022-08-27T02:34:45;15.10;;;11.50;;
73938;SDS011;62291;47.554;8.504;2022-08-27T02:37:11;14.15;;;10.93;;
73938;SDS011;62291;47.554;8.504;2022-08-27T02:39:37;13.00;;;11.57;;
73938;SDS011;62291;47.554;8.504;2022-08-27T02:42:03;12.93;;;11.23;;
73938;SDS011;62291;47.554;8.504;2022-08-27T02:44:28;14.68;;;11.40;;
73938;SDS011;62291;47.554;8.504;2022-08-27T02:46:55;13.45;;;11.65;;
73938;SDS011;62291;47.554;8.504;2022-08-27T02:49:22;12.73;;;10.95;;
73938;SDS011;62291;47.554;8.504;2022-08-27T02:51:51;11.90;;;10.70;;
73938;SDS011;62291;47.554;8.504;2022-08-27T02:54:18;12.43;;;10.85;;
73938;SDS011;62291;47.554;8.504;2022-08-27T02:56:43;11.52;;;10.30;;
73938;SDS011;62291;47.554;8.504;2022-08-27T02:59:09;14.80;;;11.88;;
73938;SDS011;62291;47.554;8.504;2022-08-27T03:01:35;13.88;;;10.52;;
73938;SDS011;62291;47.554;8.504;2022-08-27T03:04:01;12.25;;;9.40;;
73938;SDS011;62291;47.554;8.504;2022-08-27T03:06:27;10.00;;;9.00;;
73938;SDS011;62291;47.554;8.504;2022-08-27T03:08:52;13.80;;;10.50;;
73938;SDS011;62291;47.554;8.504;2022-08-27T03:11:19;11.95;;;10.13;;
73938;SDS011;62291;47.554;8.504;2022-08-27T03:13:47;12.05;;;9.45;;
73938;SDS011;62291;47.554;8.504;2022-08-27T03:16:12;14.00;;;10.32;;
73938;SDS011;62291;47.554;8.504;2022-08-27T03:18:38;13.77;;;11.02;;
73938;SDS011;62291;47.554;8.504;2022-08-27T03:21:04;11.85;;;10.63;;
73938;SDS011;62291;47.554;8.504;2022-08-27T03:23:32;14.15;;;10.07;;
73938;SDS011;62291;47.554;8.504;2022-08-27T03:26:02;14.38;;;11.77;;
73938;SDS011;62291;47.554;8.504;2022-08-27T03:28:31;12.98;;;10.25;;
73938;SDS011;62291;47.554;8.504;2022-08-27T03:30:59;14.40;;;10.02;;
73938;SDS011;62291;47.554;8.504;2022-08-27T03:33:27;11.50;;;9.95;;
73938;SDS011;62291;47.554;8.504;2022-08-27T03:35:54;12.65;;;9.88;;
73938;SDS011;62291;47.554;8.504;2022-08-27T03:38:21;11.25;;;9.93;;
73938;SDS011;62291;47.554;8.504;2022-08-27T03:40:47;11.30;;;10.13;;
73938;SDS011;62291;47.554;8.504;2022-08-27T03:43:13;12.80;;;11.13;;
73938;SDS011;62291;47.554;8.504;2022-08-27T03:45:43;11.80;;;10.10;;
73938;SDS011;62291;47.554;8.504;2022-08-27T03:48:10;20.05;;;12.15;;
73938;SDS011;62291;47.554;8.504;2022-08-27T03:50:38;14.68;;;10.45;;
73938;SDS011;62291;47.554;8.504;2022-08-27T03:53:04;15.82;;;10.88;;
73938;SDS011;62291;47.554;8.504;2022-08-27T03:55:30;13.32;;;10.52;;
73938;SDS011;62291;47.554;8.504;2022-08-27T03:57:56;15.85;;;10.88;;
73938;SDS011;62291;47.554;8.504;2022-08-27T04:00:22;13.73;;;11.43;;
73938;SDS011;62291;47.554;8.504;2022-08-27T04:02:51;13.10;;;11.35;;
73938;SDS011;62291;47.554;8.504;2022-08-27T04:05:17;14.10;;;10.57;;
73938;SDS011;62291;47.554;8.504;2022-08-27T04:07:43;13.27;;;11.23;;
73938;SDS011;62291;47.554;8.504;2022-08-27T04:10:09;12.00;;;10.55;;
73938;SDS011;62291;47.554;8.504;2022-08-27T04:12:36;13.35;;;10.40;;
73938;SDS011;62291;47.554;8.504;2022-08-27T04:15:03;14.25;;;11.10;;
73938;SDS011;62291;47.554;8.504;2022-08-27T04:17:30;12.20;;;10.70;;
73938;SDS011;62291;47.554;8.504;2022-08-27T04:19:56;11.13;;;9.80;;
73938;SDS011;62291;47.554;8.504;2022-08-27T04:22:23;10.38;;;9.02;;
73938;SDS011;62291;47.554;8.504;2022-08-27T04:24:50;10.68;;;9.68;;
73938;SDS011;62291;47.554;8.504;2022-08-27T04:27:16;11.20;;;9.40;;
73938;SDS011;62291;47.554;8.504;2022-08-27T04:29:41;12.48;;;10.65;;
73938;SDS011;62291;47.554;8.504;2022-08-27T04:32:08;12.18;;;10.88;;
73938;SDS011;62291;47.554;8.504;2022-08-27T04:34:34;10.30;;;9.30;;
73938;SDS011;62291;47.554;8.504;2022-08-27T04:37:01;12.85;;;11.43;;
73938;SDS011;62291;47.554;8.504;2022-08-27T04:39:27;14.77;;;12.25;;
73938;SDS011;62291;47.554;8.504;2022-08-27T04:41:55;13.25;;;11.82;;
73938;SDS011;62291;47.554;8.504;2022-08-27T04:44:23;16.02;;;13.43;;
73938;SDS011;62291;47.554;8.504;2022-08-27T04:46:54;16.70;;;12.80;;
73938;SDS011;62291;47.554;8.504;2022-08-27T04:49:21;20.98;;;13.15;;
73938;SDS011;62291;47.554;8.504;2022-08-27T04:51:47;15.80;;;11.93;;
73938;SDS011;62291;47.554;8.504;2022-08-27T04:54:13;14.05;;;10.57;;
73938;SDS011;62291;47.554;8.504;2022-08-27T04:56:40;12.38;;;10.63;;
73938;SDS011;62291;47.554;8.504;2022-08-27T04:59:07;12.60;;;11.23;;
73938;SDS011;62291;47.554;8.504;2022-08-27T05:01:34;13.38;;;11.98;;
73938;SDS011;62291;47.554;8.504;2022-08-27T05:04:01;17.45;;;13.90;;
73938;SDS011;62291;47.554;8.504;2022-08-27T05:06:27;16.45;;;12.73;;
73938;SDS011;62291;47.554;8.504;2022-08-27T05:08:53;21.08;;;14.88;;
73938;SDS011;62291;47.554;8.504;2022-08-27T05:11:19;16.65;;;12.52;;
73938;SDS011;62291;47.554;8.504;2022-08-27T05:13:46;21.60;;;14.55;;
73938;SDS011;62291;47.554;8.504;2022-08-27T05:16:14;17.40;;;13.02;;
73938;SDS011;62291;47.554;8.504;2022-08-27T05:18:42;22.25;;;13.20;;
73938;SDS011;62291;47.554;8.504;2022-08-27T05:21:08;17.95;;;12.98;;
73938;SDS011;62291;47.554;8.504;2022-08-27T05:23:50;18.10;;;13.13;;
73938;SDS011;62291;47.554;8.504;2022-08-27T05:26:16;19.35;;;13.77;;
73938;SDS011;62291;47.554;8.504;2022-08-27T05:28:42;15.10;;;11.63;;
73938;SDS011;62291;47.554;8.504;2022-08-27T05:31:09;14.38;;;11.43;;
73938;SDS011;62291;47.554;8.504;2022-08-27T05:33:38;16.67;;;12.90;;
73938;SDS011;62291;47.554;8.504;2022-08-27T05:36:05;16.75;;;12.20;;
73938;SDS011;62291;47.554;8.504;2022-08-27T05:38:31;18.63;;;13.43;;
73938;SDS011;62291;47.554;8.504;2022-08-27T05:41:17;17.33;;;12.30;;
73938;SDS011;62291;47.554;8.504;2022-08-27T05:43:44;20.77;;;14.10;;
73938;SDS011;62291;47.554;8.504;2022-08-27T05:46:12;18.02;;;12.63;;
73938;SDS011;62291;47.554;8.504;2022-08-27T05:48:39;17.10;;;11.82;;
73938;SDS011;62291;47.554;8.504;2022-08-27T05:51:09;15.80;;;11.25;;
73938;SDS011;62291;47.554;8.504;2022-08-27T05:53:40;13.18;;;11.77;;
73938;SDS011;62291;47.554;8.504;2022-08-27T05:56:13;13.63;;;11.25;;
73938;SDS011;62291;47.554;8.504;2022-08-27T05:58:40;12.70;;;10.68;;
73938;SDS011;62291;47.554;8.504;2022-08-27T06:01:25;16.02;;;11.70;;
73938;SDS011;62291;47.554;8.504;2022-08-27T06:03:51;14.40;;;11.88;;
73938;SDS011;62291;47.554;8.504;2022-08-27T06:06:19;12.23;;;10.50;;
73938;SDS011;62291;47.554;8.504;2022-08-27T06:08:46;10.75;;;9.65;;
73938;SDS011;62291;47.554;8.504;2022-08-27T06:11:13;13.13;;;11.38;;
73938;SDS011;62291;47.554;8.504;2022-08-27T06:13:39;14.35;;;10.35;;
73938;SDS011;62291;47.554;8.504;2022-08-27T06:16:08;11.85;;;9.70;;
73938;SDS011;62291;47.554;8.504;2022-08-27T06:18:38;15.20;;;10.70;;
73938;SDS011;62291;47.554;8.504;2022-08-27T06:21:06;13.55;;;10.80;;
73938;SDS011;62291;47.554;8.504;2022-08-27T06:23:35;15.57;;;12.05;;
73938;SDS011;62291;47.554;8.504;2022-08-27T06:26:04;12.85;;;9.45;;
73938;SDS011;62291;47.554;8.504;2022-08-27T06:28:30;13.07;;;10.98;;
73938;SDS011;62291;47.554;8.504;2022-08-27T06:31:03;11.20;;;10.10;;
73938;SDS011;62291;47.554;8.504;2022-08-27T06:33:34;12.13;;;10.15;;
73938;SDS011;62291;47.554;8.504;2022-08-27T06:36:01;10.60;;;9.43;;
73938;SDS011;62291;47.554;8.504;2022-08-27T06:38:32;8.60;;;7.80;;
73938;SDS011;62291;47.554;8.504;2022-08-27T06:40:58;10.07;;;8.68;;
73938;SDS011;62291;47.554;8.504;2022-08-27T06:43:25;11.27;;;9.20;;
73938;SDS011;62291;47.554;8.504;2022-08-27T06:45:51;11.23;;;9.02;;
73938;SDS011;62291;47.554;8.504;2022-08-27T06:48:17;10.13;;;8.75;;
73938;SDS011;62291;47.554;8.504;2022-08-27T06:50:43;9.90;;;8.82;;
73938;SDS011;62291;47.554;8.504;2022-08-27T06:53:09;10.05;;;8.98;;
73938;SDS011;62291;47.554;8.504;2022-08-27T06:55:41;9.68;;;8.15;;
73938;SDS011;62291;47.554;8.504;2022-08-27T06:58:12;10.30;;;9.23;;
73938;SDS011;62291;47.554;8.504;2022-08-27T07:00:39;13.02;;;9.88;;
73938;SDS011;62291;47.554;8.504;2022-08-27T07:03:05;10.40;;;9.30;;
73938;SDS011;62291;47.554;8.504;2022-08-27T07:05:32;12.32;;;10.05;;
73938;SDS011;62291;47.554;8.504;2022-08-27T07:07:58;11.05;;;9.65;;
73938;SDS011;62291;47.554;8.504;2022-08-27T07:10:24;9.50;;;8.60;;
73938;SDS011;62291;47.554;8.504;2022-08-27T07:12:50;11.40;;;9.20;;
73938;SDS011;62291;47.554;8.504;2022-08-27T07:15:15;10.85;;;9.73;;
73938;SDS011;62291;47.554;8.504;2022-08-27T07:17:41;10.77;;;9.70;;
73938;SDS011;62291;47.554;8.504;2022-08-27T07:20:09;10.05;;;8.82;;
73938;SDS011;62291;47.554;8.504;2022-08-27T07:22:38;9.70;;;8.68;;
73938;SDS011;62291;47.554;8.504;2022-08-27T07:25:05;7.90;;;7.20;;
73938;SDS011;62291;47.554;8.504;2022-08-27T07:27:33;8.57;;;7.78;;
73938;SDS011;62291;47.554;8.504;2022-08-27T07:29:59;10.18;;;7.28;;
73938;SDS011;62291;47.554;8.504;2022-08-27T07:32:25;7.47;;;6.70;;
73938;SDS011;62291;47.554;8.504;2022-08-27T07:34:51;16.55;;;14.70;;
73938;SDS011;62291;47.554;8.504;2022-08-27T07:37:16;12.30;;;9.70;;
73938;SDS011;62291;47.554;8.504;2022-08-27T07:39:42;9.60;;;8.65;;
73938;SDS011;62291;47.554;8.504;2022-08-27T07:42:08;7.28;;;6.57;;
73938;SDS011;62291;47.554;8.504;2022-08-27T07:44:52;10.95;;;9.85;;
73938;SDS011;62291;47.554;8.504;2022-08-27T07:47:18;7.07;;;6.38;;
73938;SDS011;62291;47.554;8.504;2022-08-27T07:49:43;6.20;;;5.57;;
73938;SDS011;62291;47.554;8.504;2022-08-27T07:52:10;6.18;;;5.68;;
73938;SDS011;62291;47.554;8.504;2022-08-27T07:54:36;6.38;;;5.55;;
73938;SDS011;62291;47.554;8.504;2022-08-27T07:57:01;6.50;;;5.90;;
73938;SDS011;62291;47.554;8.504;2022-08-27T07:59:28;7.80;;;6.22;;
73938;SDS011;62291;47.554;8.504;2022-08-27T08:01:54;6.43;;;5.82;;
73938;SDS011;62291;47.554;8.504;2022-08-27T08:04:20;5.80;;;5.30;;
73938;SDS011;62291;47.554;8.504;2022-08-27T08:06:47;5.30;;;4.80;;
73938;SDS011;62291;47.554;8.504;2022-08-27T08:09:13;5.85;;;5.25;;
73938;SDS011;62291;47.554;8.504;2022-08-27T08:11:39;5.90;;;5.30;;
73938;SDS011;62291;47.554;8.504;2022-08-27T08:14:05;5.82;;;4.90;;
73938;SDS011;62291;47.554;8.504;2022-08-27T08:16:30;5.43;;;4.85;;
73938;SDS011;62291;47.554;8.504;2022-08-27T08:18:56;4.88;;;4.47;;
73938;SDS011;62291;47.554;8.504;2022-08-27T08:21:24;4.90;;;4.50;;
73938;SDS011;62291;47.554;8.504;2022-08-27T08:23:50;4.85;;;4.45;;
73938;SDS011;62291;47.554;8.504;2022-08-27T08:26:16;4.50;;;4.10;;
73938;SDS011;62291;47.554;8.504;2022-08-27T08:28:42;5.10;;;4.60;;
73938;SDS011;62291;47.554;8.504;2022-08-27T08:31:08;4.28;;;3.95;;
73938;SDS011;62291;47.554;8.504;2022-08-27T08:33:34;5.95;;;4.22;;
73938;SDS011;62291;47.554;8.504;2022-08-27T08:36:04;4.65;;;4.13;;
73938;SDS011;62291;47.554;8.504;2022-08-27T08:38:31;4.72;;;3.60;;
73938;SDS011;62291;47.554;8.504;2022-08-27T08:40:57;4.60;;;4.03;;
73938;SDS011;62291;47.554;8.504;2022-08-27T08:48:22;4.28;;;3.88;;
73938;SDS011;62291;47.554;8.504;2022-08-27T08:51:02;4.32;;;3.80;;
73938;SDS011;62291;47.554;8.504;2022-08-27T08:53:42;5.40;;;3.95;;
73938;SDS011;62291;47.554;8.504;2022-08-27T08:56:24;3.63;;;3.33;;
73938;SDS011;62291;47.554;8.504;2022-08-27T08:59:00;5.03;;;3.30;;
73938;SDS011;62291;47.554;8.504;2022-08-27T09:01:32;4.90;;;3.50;;
73938;SDS011;62291;47.554;8.504;2022-08-27T09:03:59;4.63;;;3.47;;
73938;SDS011;62291;47.554;8.504;2022-08-27T09:06:39;3.53;;;3.15;;
73938;SDS011;62291;47.554;8.504;2022-08-27T09:09:20;3.10;;;2.75;;
73938;SDS011;62291;47.554;8.504;2022-08-27T09:12:12;3.95;;;3.03;;
73938;SDS011;62291;47.554;8.504;2022-08-27T09:17:27;3.85;;;3.20;;
73938;SDS011;62291;47.554;8.504;2022-08-27T09:19:53;4.18;;;3.78;;
73938;SDS011;62291;47.554;8.504;2022-08-27T09:22:26;4.20;;;3.90;;
73938;SDS011;62291;47.554;8.504;2022-08-27T09:27:57;4.05;;;3.58;;
73938;SDS011;62291;47.554;8.504;2022-08-27T09:30:26;4.60;;;4.20;;
73938;SDS011;62291;47.554;8.504;2022-08-27T09:32:56;3.90;;;3.53;;
73938;SDS011;62291;47.554;8.504;2022-08-27T09:35:33;5.10;;;3.60;;
73938;SDS011;62291;47.554;8.504;2022-08-27T09:38:05;3.70;;;3.40;;
73938;SDS011;62291;47.554;8.504;2022-08-27T09:40:35;3.80;;;3.50;;
73938;SDS011;62291;47.554;8.504;2022-08-27T09:45:32;3.72;;;3.28;;
73938;SDS011;62291;47.554;8.504;2022-08-27T09:50:35;3.65;;;2.90;;
73938;SDS011;62291;47.554;8.504;2022-08-27T09:53:03;3.22;;;2.60;;
73938;SDS011;62291;47.554;8.504;2022-08-27T09:56:04;3.25;;;2.45;;
73938;SDS011;62291;47.554;8.504;2022-08-27T09:58:53;2.72;;;2.53;;
73938;SDS011;62291;47.554;8.504;2022-08-27T10:01:24;2.70;;;2.50;;
73938;SDS011;62291;47.554;8.504;2022-08-27T10:04:12;3.13;;;2.83;;
73938;SDS011;62291;47.554;8.504;2022-08-27T10:06:44;2.72;;;2.53;;
73938;SDS011;62291;47.554;8.504;2022-08-27T10:09:16;2.78;;;2.00;;
73938;SDS011;62291;47.554;8.504;2022-08-27T10:12:02;2.83;;;2.55;;
73938;SDS011;62291;47.554;8.504;2022-08-27T10:14:32;2.78;;;2.58;;
73938;SDS011;62291;47.554;8.504;2022-08-27T10:25:42;5.15;;;4.00;;
73938;SDS011;62291;47.554;8.504;2022-08-27T10:28:22;3.70;;;2.80;;
73938;SDS011;62291;47.554;8.504;2022-08-27T10:39:14;3.60;;;3.30;;
73938;SDS011;62291;47.554;8.504;2022-08-27T10:47:12;2.85;;;2.50;;
73938;SDS011;62291;47.554;8.504;2022-08-27T10:52:34;1.85;;;1.70;;
73938;SDS011;62291;47.554;8.504;2022-08-27T10:55:09;4.32;;;1.90;;
73938;SDS011;62291;47.554;8.504;2022-08-27T11:00:58;2.78;;;2.42;;
73938;SDS011;62291;47.554;8.504;2022-08-27T11:03:46;3.55;;;3.25;;
73938;SDS011;62291;47.554;8.504;2022-08-27T11:11:40;3.60;;;3.30;;
73938;SDS011;62291;47.554;8.504;2022-08-27T11:14:10;4.13;;;3.72;;
73938;SDS011;62291;47.554;8.504;2022-08-27T11:16:48;5.53;;;4.70;;
73938;SDS011;62291;47.554;8.504;2022-08-27T11:19:20;6.55;;;5.35;;
73938;SDS011;62291;47.554;8.504;2022-08-27T11:27:07;5.30;;;4.80;;
73938;SDS011;62291;47.554;8.504;2022-08-27T11:29:54;22.90;;;19.40;;
73938;SDS011;62291;47.554;8.504;2022-08-27T11:35:24;6.22;;;4.97;;
73938;SDS011;62291;47.554;8.504;2022-08-27T11:38:22;6.60;;;5.80;;
73938;SDS011;62291;47.554;8.504;2022-08-27T11:43:28;6.85;;;6.13;;
73938;SDS011;62291;47.554;8.504;2022-08-27T11:46:00;7.25;;;6.50;;
73938;SDS011;62291;47.554;8.504;2022-08-27T11:48:30;8.38;;;6.20;;
73938;SDS011;62291;47.554;8.504;2022-08-27T11:51:11;6.72;;;6.15;;
73938;SDS011;62291;47.554;8.504;2022-08-27T11:53:56;7.22;;;6.53;;
73938;SDS011;62291;47.554;8.504;2022-08-27T11:58:54;7.65;;;6.85;;
73938;SDS011;62291;47.554;8.504;2022-08-27T12:01:24;7.55;;;6.75;;
73938;SDS011;62291;47.554;8.504;2022-08-27T12:04:06;8.32;;;6.53;;
73938;SDS011;62291;47.554;8.504;2022-08-27T12:06:48;7.78;;;6.57;;
73938;SDS011;62291;47.554;8.504;2022-08-27T12:11:57;6.70;;;6.05;;
73938;SDS011;62291;47.554;8.504;2022-08-27T12:20:17;6.93;;;6.22;;
73938;SDS011;62291;47.554;8.504;2022-08-27T12:23:14;8.32;;;6.50;;
73938;SDS011;62291;47.554;8.504;2022-08-27T12:28:50;7.13;;;6.43;;
73938;SDS011;62291;47.554;8.504;2022-08-27T12:31:20;7.97;;;6.85;;
73938;SDS011;62291;47.554;8.504;2022-08-27T12:33:47;7.13;;;6.43;;
73938;SDS011;62291;47.554;8.504;2022-08-27T12:36:17;7.25;;;6.43;;
73938;SDS011;62291;47.554;8.504;2022-08-27T12:38:49;7.97;;;7.28;;
73938;SDS011;62291;47.554;8.504;2022-08-27T12:44:09;8.88;;;7.03;;
73938;SDS011;62291;47.554;8.504;2022-08-27T12:46:37;8.07;;;7.28;;
73938;SDS011;62291;47.554;8.504;2022-08-27T12:49:17;8.27;;;7.45;;
73938;SDS011;62291;47.554;8.504;2022-08-27T12:51:45;8.52;;;7.38;;
73938;SDS011;62291;47.554;8.504;2022-08-27T12:57:02;8.30;;;7.45;;
73938;SDS011;62291;47.554;8.504;2022-08-27T12:59:52;9.20;;;7.38;;
73938;SDS011;62291;47.554;8.504;2022-08-27T13:04:53;7.10;;;6.40;;
73938;SDS011;62291;47.554;8.504;2022-08-27T13:07:29;8.27;;;6.70;;
73938;SDS011;62291;47.554;8.504;2022-08-27T13:10:07;6.88;;;6.18;;
73938;SDS011;62291;47.554;8.504;2022-08-27T13:12:59;7.75;;;6.95;;
73938;SDS011;62291;47.554;8.504;2022-08-27T13:15:25;7.22;;;6.43;;
73938;SDS011;62291;47.554;8.504;2022-08-27T13:17:50;6.80;;;5.90;;
73938;SDS011;62291;47.554;8.504;2022-08-27T13:20:21;9.18;;;6.35;;
73938;SDS011;62291;47.554;8.504;2022-08-27T13:22:48;6.78;;;6.15;;
73938;SDS011;62291;47.554;8.504;2022-08-27T13:25:20;6.50;;;5.70;;
73938;SDS011;62291;47.554;8.504;2022-08-27T13:27:56;8.90;;;5.95;;
73938;SDS011;62291;47.554;8.504;2022-08-27T13:30:31;7.03;;;6.28;;
73938;SDS011;62291;47.554;8.504;2022-08-27T13:33:02;7.90;;;6.17;;
73938;SDS011;62291;47.554;8.504;2022-08-27T13:35:29;7.88;;;6.80;;
73938;SDS011;62291;47.554;8.504;2022-08-27T13:37:56;6.72;;;6.03;;
73938;SDS011;62291;47.554;8.504;2022-08-27T13:40:28;7.13;;;6.43;;
73938;SDS011;62291;47.554;8.504;2022-08-27T13:43:14;7.20;;;6.03;;
73938;SDS011;62291;47.554;8.504;2022-08-27T13:45:41;7.78;;;5.63;;
73938;SDS011;62291;47.554;8.504;2022-08-27T13:48:13;5.20;;;4.68;;
73938;SDS011;62291;47.554;8.504;2022-08-27T13:50:49;5.35;;;4.85;;
73938;SDS011;62291;47.554;8.504;2022-08-27T13:53:19;5.10;;;4.60;;
73938;SDS011;62291;47.554;8.504;2022-08-27T13:56:06;5.03;;;4.55;;
73938;SDS011;62291;47.554;8.504;2022-08-27T13:58:33;6.15;;;4.55;;
73938;SDS011;62291;47.554;8.504;2022-08-27T14:01:07;5.18;;;4.55;;
73938;SDS011;62291;47.554;8.504;2022-08-27T14:03:48;5.65;;;4.82;;
73938;SDS011;62291;47.554;8.504;2022-08-27T14:06:24;5.07;;;4.57;;
73938;SDS011;62291;47.554;8.504;2022-08-27T14:09:18;5.53;;;5.03;;
73938;SDS011;62291;47.554;8.504;2022-08-27T14:11:56;5.53;;;4.90;;
73938;SDS011;62291;47.554;8.504;2022-08-27T14:14:27;5.32;;;4.90;;
73938;SDS011;62291;47.554;8.504;2022-08-27T14:16:58;5.80;;;4.75;;
73938;SDS011;62291;47.554;8.504;2022-08-27T14:21:52;5.38;;;4.88;;
73938;SDS011;62291;47.554;8.504;2022-08-27T14:24:18;5.55;;;5.05;;
73938;SDS011;62291;47.554;8.504;2022-08-27T14:26:47;5.93;;;5.32;;
73938;SDS011;62291;47.554;8.504;2022-08-27T14:29:18;6.53;;;5.82;;
73938;SDS011;62291;47.554;8.504;2022-08-27T14:31:44;5.63;;;5.07;;
73938;SDS011;62291;47.554;8.504;2022-08-27T14:34:10;7.35;;;5.70;;
73938;SDS011;62291;47.554;8.504;2022-08-27T14:36:37;6.75;;;5.68;;
73938;SDS011;62291;47.554;8.504;2022-08-27T14:39:04;6.28;;;5.68;;
73938;SDS011;62291;47.554;8.504;2022-08-27T14:41:30;6.68;;;6.07;;
73938;SDS011;62291;47.554;8.504;2022-08-27T14:43:57;6.57;;;5.97;;
73938;SDS011;62291;47.554;8.504;2022-08-27T14:46:27;7.15;;;6.25;;
73938;SDS011;62291;47.554;8.504;2022-08-27T14:48:55;7.22;;;6.53;;
73938;SDS011;62291;47.554;8.504;2022-08-27T14:51:23;7.15;;;5.97;;
73938;SDS011;62291;47.554;8.504;2022-08-27T14:53:51;7.05;;;6.05;;
73938;SDS011;62291;47.554;8.504;2022-08-27T14:56:18;7.10;;;6.50;;
73938;SDS011;62291;47.554;8.504;2022-08-27T14:58:44;7.10;;;6.43;;
73938;SDS011;62291;47.554;8.504;2022-08-27T15:01:10;7.15;;;6.45;;
73938;SDS011;62291;47.554;8.504;2022-08-27T15:03:41;6.82;;;6.13;;
73938;SDS011;62291;47.554;8.504;2022-08-27T15:06:11;7.32;;;6.40;;
73938;SDS011;62291;47.554;8.504;2022-08-27T15:08:37;7.50;;;6.90;;
73938;SDS011;62291;47.554;8.504;2022-08-27T15:11:03;7.60;;;6.68;;
73938;SDS011;62291;47.554;8.504;2022-08-27T15:13:29;7.30;;;6.57;;
73938;SDS011;62291;47.554;8.504;2022-08-27T15:15:55;7.93;;;7.20;;
73938;SDS011;62291;47.554;8.504;2022-08-27T15:18:21;8.48;;;6.88;;
73938;SDS011;62291;47.554;8.504;2022-08-27T15:20:47;8.98;;;6.63;;
73938;SDS011;62291;47.554;8.504;2022-08-27T15:23:13;7.75;;;7.05;;
73938;SDS011;62291;47.554;8.504;2022-08-27T15:25:40;7.72;;;6.93;;
73938;SDS011;62291;47.554;8.504;2022-08-27T15:28:06;7.00;;;6.40;;
73938;SDS011;62291;47.554;8.504;2022-08-27T15:30:32;7.32;;;6.68;;
73938;SDS011;62291;47.554;8.504;2022-08-27T15:32:58;8.60;;;7.60;;
73938;SDS011;62291;47.554;8.504;2022-08-27T15:35:25;7.47;;;6.78;;
73938;SDS011;62291;47.554;8.504;2022-08-27T15:37:52;7.45;;;6.47;;
73938;SDS011;62291;47.554;8.504;2022-08-27T15:40:19;6.18;;;5.57;;
73938;SDS011;62291;47.554;8.504;2022-08-27T15:42:47;7.15;;;4.63;;
73938;SDS011;62291;47.554;8.504;2022-08-27T15:45:17;5.38;;;4.82;;
73938;SDS011;62291;47.554;8.504;2022-08-27T15:47:42;6.15;;;5.45;;
73938;SDS011;62291;47.554;8.504;2022-08-27T15:50:08;6.70;;;5.55;;
73938;SDS011;62291;47.554;8.504;2022-08-27T15:52:37;7.03;;;6.32;;
73938;SDS011;62291;47.554;8.504;2022-08-27T15:55:05;7.03;;;5.82;;
73938;SDS011;62291;47.554;8.504;2022-08-27T15:57:35;7.03;;;6.05;;
73938;SDS011;62291;47.554;8.504;2022-08-27T16:00:00;7.00;;;6.28;;
73938;SDS011;62291;47.554;8.504;2022-08-27T16:02:26;6.70;;;5.75;;
73938;SDS011;62291;47.554;8.504;2022-08-27T16:04:52;6.07;;;5.03;;
73938;SDS011;62291;47.554;8.504;2022-08-27T16:07:18;8.02;;;5.80;;
73938;SDS011;62291;47.554;8.504;2022-08-27T16:09:45;6.20;;;5.57;;
73938;SDS011;62291;47.554;8.504;2022-08-27T16:12:10;6.65;;;5.95;;
73938;SDS011;62291;47.554;8.504;2022-08-27T16:14:36;11.63;;;7.05;;
73938;SDS011;62291;47.554;8.504;2022-08-27T16:17:01;7.85;;;5.43;;